»·PEaware :: DAL2814 KSFO-KLAX

DAL2814 :: KSFO-KLAX

FLIGHT INFORMATION

Flight Status: Arrived
Operator:
Delta Air Lines
More flights by this operator :: More flights under this callsign
Pilot: Jake M. (20491)
Aircraft: AIRBUS A320
(A320)
More flights by this aircraft type
Origin: KSFO San Francisco Intl
United States
Destination: KLAX Los Angeles Intl
United States
More flights between these airports :: More routes between these airports
Route: +WESLA4 EBAYE BURGL BAYST1
File this flight plan on PilotEdge
Remarks: PBN / A1B1C1D1O1S1 DOF / 181010 REG / N320SB EET / KZLA0023 OPR / UAL PER / C RMK / TCAS SIMBRIEF
Altitude:
(Current/Filed)
35,000ft
Speed:
(Current/Filed)
433kts
Departed: 10-Oct-18 03:53 PM
Arrived: 10-Oct-18 04:57 PM
Distance/Time
Traveled:
293nm/1:04
Distance/Time
To Go:
Arrived

Flight Plot

Page will automatically refresh every two minutes.

Flight plan parsing failed; only flown route is shown


Map Options




Map Legend


Flown Route
Filed Route
Departure Airport
Arrival Airport
Navaid (VOR, NDB)
Fix

Horizontal Profiles

Position Reports

Time Latitude Longitude Heading Altitude Ground
Speed
10-Oct-18 15:29 37.617817 -122.380552 253 32ft 0kts
10-Oct-18 15:30 37.617817 -122.380552 253 32ft 0kts
10-Oct-18 15:31 37.617817 -122.380552 253 32ft 0kts
10-Oct-18 15:32 37.617817 -122.380552 253 32ft 0kts
10-Oct-18 15:33 37.617817 -122.380552 253 32ft 0kts
10-Oct-18 15:34 37.617817 -122.380552 253 32ft 0kts
10-Oct-18 15:35 37.617817 -122.380552 253 32ft 0kts
10-Oct-18 15:36 37.617817 -122.380552 253 32ft 0kts
10-Oct-18 15:37 37.617817 -122.380552 253 32ft 0kts
10-Oct-18 15:38 37.617817 -122.380552 253 32ft 0kts
10-Oct-18 15:39 37.617817 -122.380552 253 32ft 0kts
10-Oct-18 15:40 37.617817 -122.380552 253 32ft 0kts
10-Oct-18 15:41 37.617817 -122.380552 253 32ft 0kts
10-Oct-18 15:42 37.617817 -122.380552 253 32ft 0kts
10-Oct-18 15:43 37.617817 -122.380552 253 32ft 0kts
10-Oct-18 15:44 37.617865 -122.380392 239 32ft 2kts
10-Oct-18 15:45 37.618350 -122.379996 183 32ft 2kts
10-Oct-18 15:46 37.618879 -122.380279 128 32ft 2kts
10-Oct-18 15:47 37.618952 -122.380414 124 32ft 0kts
10-Oct-18 15:48 37.618952 -122.380414 124 32ft 0kts
10-Oct-18 15:49 37.618952 -122.380414 124 32ft 0kts
10-Oct-18 15:50 37.617376 -122.375742 112 22ft 30kts
10-Oct-18 15:51 37.613173 -122.366651 120 12ft 30kts
10-Oct-18 15:52 37.610718 -122.359318 44 9ft 11kts
10-Oct-18 15:53 37.611059 -122.358992 33 9ft 0kts
10-Oct-18 15:54 37.611206 -122.358882 27 9ft 9kts
10-Oct-18 15:55 37.619917 -122.377154 299 391ft 150kts
10-Oct-18 15:56 37.641076 -122.424866 294 2920ft 189kts
10-Oct-18 15:57 37.668191 -122.496485 269 3005ft 241kts
10-Oct-18 15:58 37.617016 -122.532178 164 5493ft 267kts
10-Oct-18 15:59 37.545430 -122.499678 161 8804ft 283kts
10-Oct-18 16:00 37.463425 -122.438211 133 11545ft 335kts
10-Oct-18 16:01 37.411082 -122.363845 133 13785ft 349kts
10-Oct-18 16:02 37.345569 -122.271516 133 16300ft 360kts
10-Oct-18 16:03 37.278106 -122.176883 133 18540ft 371kts
10-Oct-18 16:04 37.208086 -122.078997 133 20470ft 384kts
10-Oct-18 16:05 37.135754 -121.978174 134 22237ft 396kts
10-Oct-18 16:06 37.061378 -121.874828 134 23831ft 407kts
10-Oct-18 16:07 36.984462 -121.768295 133 25330ft 417kts
10-Oct-18 16:08 36.906680 -121.660916 133 26704ft 426kts
10-Oct-18 16:09 36.827197 -121.551552 133 27932ft 435kts
10-Oct-18 16:10 36.745039 -121.438885 132 29096ft 443kts
10-Oct-18 16:11 36.662008 -121.325416 133 30134ft 450kts
10-Oct-18 16:12 36.578207 -121.211262 133 31503ft 447kts
10-Oct-18 16:13 36.494533 -121.097701 133 32747ft 445kts
10-Oct-18 16:14 36.411290 -120.985118 134 33885ft 443kts
10-Oct-18 16:15 36.328201 -120.873129 134 34803ft 442kts
10-Oct-18 16:16 36.245238 -120.761684 134 34820ft 441kts
10-Oct-18 16:17 36.161956 -120.650193 134 34922ft 442kts
10-Oct-18 16:18 36.078689 -120.539091 134 34808ft 441kts
10-Oct-18 16:19 35.996147 -120.429321 134 34810ft 441kts
10-Oct-18 16:20 35.912996 -120.319109 135 34814ft 441kts
10-Oct-18 16:21 35.820822 -120.224324 150 34825ft 438kts
10-Oct-18 16:22 35.716920 -120.146055 150 34828ft 438kts
10-Oct-18 16:23 35.613638 -120.068219 150 34820ft 437kts
10-Oct-18 16:24 35.510480 -119.990463 150 34888ft 438kts
10-Oct-18 16:25 35.406748 -119.912533 150 34767ft 438kts
10-Oct-18 16:26 35.302434 -119.834352 149 34746ft 446kts
10-Oct-18 16:27 35.202974 -119.743913 144 34811ft 453kts
10-Oct-18 16:28 35.102361 -119.650073 144 34845ft 456kts
10-Oct-18 16:29 35.000864 -119.555717 143 33270ft 466kts
10-Oct-18 16:30 34.880031 -119.444524 144 29859ft 474kts
10-Oct-18 16:31 34.794121 -119.367823 144 27881ft 443kts
10-Oct-18 16:32 34.699979 -119.284510 146 24958ft 410kts
10-Oct-18 16:33 34.610531 -119.206881 146 22184ft 382kts
10-Oct-18 16:34 34.525560 -119.132979 145 20388ft 373kts
10-Oct-18 16:35 34.442963 -119.059817 145 18630ft 363kts
10-Oct-18 16:36 34.362236 -118.989818 145 16849ft 356kts
10-Oct-18 16:37 34.284190 -118.919995 143 15191ft 345kts
10-Oct-18 16:38 34.208669 -118.850887 143 13554ft 336kts
10-Oct-18 16:39 34.137965 -118.781275 138 12169ft 322kts
10-Oct-18 16:40 34.072915 -118.710564 139 10815ft 309kts
10-Oct-18 16:41 34.026364 -118.631437 98 9814ft 290kts
10-Oct-18 16:42 34.017680 -118.537275 97 8603ft 278kts
10-Oct-18 16:43 34.006992 -118.451153 120 7997ft 243kts
10-Oct-18 16:44 33.972428 -118.384661 124 7502ft 235kts
10-Oct-18 16:45 33.938324 -118.319405 125 7055ft 239kts
10-Oct-18 16:46 33.916549 -118.242280 108 6434ft 245kts
10-Oct-18 16:47 33.905055 -118.162539 82 6013ft 243kts
10-Oct-18 16:48 33.913167 -118.081909 82 6009ft 243kts
10-Oct-18 16:49 33.921398 -118.001232 81 4957ft 243kts
10-Oct-18 16:50 33.965816 -117.965008 325 3993ft 231kts
10-Oct-18 16:51 33.979873 -118.034600 259 4018ft 225kts
10-Oct-18 16:52 33.966425 -118.099780 261 4030ft 173kts
10-Oct-18 16:53 33.961983 -118.148451 264 3869ft 140kts
10-Oct-18 16:54 33.956929 -118.195003 264 3138ft 138kts
10-Oct-18 16:55 33.952244 -118.239843 263 2395ft 134kts
10-Oct-18 16:56 33.947655 -118.284041 263 1698ft 133kts
10-Oct-18 16:57 33.943066 -118.327832 263 1034ft 132kts
10-Oct-18 16:58 33.938559 -118.371264 263 334ft 129kts
10-Oct-18 16:59 33.935633 -118.400399 269 118ft 36kts
10-Oct-18 17:00 33.936198 -118.405028 263 124ft 10kts
10-Oct-18 17:01 33.935971 -118.408161 286 127ft 5kts
10-Oct-18 17:02 33.936033 -118.408374 291 127ft 0kts
10-Oct-18 17:03 33.936036 -118.408382 290 127ft 0kts
10-Oct-18 17:04 33.936039 -118.408391 290 127ft 0kts
10-Oct-18 17:05 33.936042 -118.408400 290 127ft 0kts
10-Oct-18 17:06 33.936042 -118.408400 290 127ft 0kts
10-Oct-18 17:07 33.936042 -118.408400 290 127ft 0kts
10-Oct-18 17:08 33.938359 -118.409137 22 127ft 14kts
10-Oct-18 17:09 33.939437 -118.401642 83 121ft 15kts
10-Oct-18 17:10 33.940993 -118.400783 358 119ft 1kts
10-Oct-18 17:11 33.941139 -118.400141 96 118ft 0kts
10-Oct-18 17:12 33.941138 -118.400134 96 118ft 0kts
10-Oct-18 17:13 33.941137 -118.400131 95 118ft 0kts

Navigation Log

Ident Type
Flight plan parsing failed, navigation log unavailable